FMNA

Details ICAO FMNA (DIE)
Name ARRACHART
Region Comoros, Mayotte, Réunion and Madagascar
Timezone Indian/Antananarivo (UTC+3.0)
Plans Departing 28
Arriving 25
Stats Elevation 374 ft / 114 m (AMSL)
Location -12.349400° 49.291747°
Runways 1
Magnetic Variation 8.867° W
Sunrise 2017-12-14 02:13:34 UTC / 2017-12-14 05:13:34 Local
Sunset 2017-12-14 15:04:08 UTC / 2017-12-14 18:04:08 Local
Advertisement - Login to hide

Runways

ID Width Length Bearing (true) Bearing (mag) Surface Threshold Offset Overrun Length
13 98 ft / 30 m 4,907 ft / 1,496 m 124.22° 133.09° Asphalt 0 ft / 0 m 100 ft / 30 m
31 98 ft / 30 m 4,907 ft / 1,496 m 304.22° 313.09° Asphalt 0 ft / 0 m 100 ft / 30 m

Map

Weather


0- 5 10 15 20 25 30 35+ Temperature / ° C

Clouds and Precipitation
Forecast for 2017-12-14 18:00 UTC. Updated 15 minutes ago

Ground ~20,000 ft ~40,000 ft Winds

METAR

FMNA 141300Z 00000KT 9999 BKN020CB 28/25 Q1009

TAF

TAF FMNA 141100Z 1412/1512 14015G25KT 9999 FEW010 BKN017CB TEMPO 1412/1412 4000 TSRA

Frequencies

Tower 118.10 MHz AFIS INFO
Warning: Do not use this data for real-world aviation or navigation. No guarantee of current accuracy is given.